Latest Weather Observations for Hervey Bay

IDQ60801

Issued at 8:02 pm EST Monday 26 January 2015 (issued every 30 minutes, with the page automatically refreshed every 10 minutes)

About weather observations | Map of weather stations | Latest weather observations for QLD | Other Formats
Station Details ID: 040405 Name: HERVEY BAY AIRPORT Lat: -25.32 Lon: 152.88 Height: 12.98 m
Data from the previous 72 hours. | See also: Recent months at Hervey Bay
Date/Time
EST
Temp
°C
App
Temp
°C
Dew
Point
Rel
Hum
%
Delta-T
°C
Wind Press
QNH
hPa
Press
MSL
hPa
Rain
since 9 am
mm
Dir
 
Spd
km/h
Gust
km/h
Spd
kts
Gust
kts
26/08:00pm 28.1 30.7 24.9 83 2.2 ESE 20 35 11 19 1006.1 1006.0 0.0
26/07:30pm 28.5 30.5 25.1 82 2.4 E 24 33 13 18 1005.7 1005.6 0.0
26/07:00pm 28.5 31.2 25.1 82 2.4 ESE 20 28 11 15 1005.6 1005.5 0.0
26/06:30pm 28.4 32.4 25.0 82 2.4 SE 13 20 7 11 1005.8 1005.7 0.0
26/06:00pm 28.5 32.0 24.9 81 2.5 SE 15 24 8 13 1005.5 1005.4 0.0
26/05:30pm 28.8 31.9 24.8 79 2.8 ESE 17 24 9 13 1004.9 1004.8 0.0
26/05:00pm 29.0 31.2 24.3 76 3.3 SE 20 30 11 16 1004.5 1004.4 0.0
26/04:30pm 30.1 32.1 24.5 72 3.9 ESE 22 28 12 15 1003.4 1003.3 0.0
26/04:00pm 30.5 32.3 24.2 69 4.4 ESE 22 30 12 16 1003.9 1003.8 0.0
26/03:30pm 32.4 34.7 25.0 65 5.2 ESE 22 32 12 17 1003.4 1003.3 0.0
26/03:00pm 32.8 35.1 24.5 61 5.8 ESE 20 30 11 16 1003.7 1003.6 0.0
26/02:30pm 32.6 33.7 23.0 57 6.6 ESE 22 28 12 15 1004.0 1003.9 0.0
26/02:00pm 32.9 33.8 22.7 55 7.0 ESE 22 30 12 16 1003.9 1003.8 0.0
26/01:30pm 33.6 36.2 23.9 57 6.8 ESE 17 24 9 13 1004.2 1004.1 0.0
26/01:00pm 33.3 35.2 22.7 53 7.3 E 17 22 9 12 1004.3 1004.2 0.0
26/12:30pm 33.3 36.6 24.5 60 6.2 SE 15 24 8 13 1004.6 1004.5 0.0
26/12:00pm 33.0 36.2 25.0 63 5.7 ESE 17 20 9 11 1005.0 1004.9 0.0
26/11:30am 32.7 35.2 23.1 57 6.6 ESE 15 20 8 11 1005.2 1005.1 0.0
26/11:00am 32.4 35.1 21.3 52 7.5 SSE 9 15 5 8 1005.6 1005.5 0.0
26/10:30am 31.4 32.8 20.4 52 7.3 E 13 17 7 9 1005.9 1005.8 0.0
26/10:00am 30.6 34.2 24.3 69 4.4 ESE 13 19 7 10 1006.1 1006.0 0.0
26/09:30am 29.6 33.4 24.7 75 3.4 E 13 19 7 10 1006.2 1006.1 0.0
26/09:00am 29.7 34.8 24.1 72 3.9 SSE 4 13 2 7 1006.1 1006.0 6.6
26/08:30am 28.7 32.9 23.1 71 3.8 SSW 6 7 3 4 1006.3 1006.2 6.4
26/08:00am 27.8 33.0 23.6 78 2.9 SE 2 7 1 4 1006.4 1006.3 6.4
26/07:30am 27.1 32.6 24.0 83 2.1 ESE 2 7 1 4 1006.4 1006.3 6.4
26/07:00am 25.9 31.3 23.2 85 1.8 CALM 0 0 0 0 1006.4 1006.3 6.4
26/06:30am 24.7 29.8 22.6 88 1.4 CALM 0 0 0 0 1006.5 1006.4 6.4
26/06:00am 23.3 28.0 21.9 92 0.9 CALM 0 0 0 0 1006.2 1006.1 6.4
26/05:30am 23.3 28.1 22.1 93 0.8 CALM 0 0 0 0 1005.9 1005.8 6.4
26/05:00am 23.3 28.0 21.9 92 0.9 CALM 0 0 0 0 1005.4 1005.3 6.4
26/04:30am 23.3 28.0 21.9 92 0.9 CALM 0 0 0 0 1005.1 1005.0 6.4
26/04:00am 23.7 28.2 22.3 92 0.9 WSW 2 9 1 5 1004.7 1004.6 6.4
26/03:30am 23.7 27.4 22.3 92 0.9 SW 6 9 3 5 1004.6 1004.5 6.4
26/03:00am 23.4 27.0 22.0 92 0.9 W 6 9 3 5 1004.5 1004.4 6.4
26/02:36am 23.9 27.9 22.7 93 0.8 SSW 6 11 3 6 1004.6 1004.5 6.4
26/02:30am 23.8 28.1 22.6 93 0.8 SW 4 11 2 6 1004.5 1004.4 6.4
26/02:02am 24.1 28.0 22.9 93 0.8 SW 7 9 4 5 1005.1 1005.0 6.4
26/02:00am 24.0 27.8 22.8 93 0.8 SW 7 9 4 5 1005.1 1005.0 6.4
26/01:30am 24.1 29.4 23.1 94 0.7 CALM 0 6 0 3 1005.4 1005.3 6.4
26/01:25am 24.3 29.7 23.3 94 0.7 CALM 0 0 0 0 1005.3 1005.2 6.4
26/01:00am 24.2 29.6 23.2 94 0.7 CALM 0 0 0 0 1005.6 1005.5 6.4
26/12:59am 24.1 29.4 23.1 94 0.7 CALM 0 0 0 0 1005.6 1005.5 6.4
26/12:30am 24.3 29.6 23.1 93 0.8 CALM 0 0 0 0 1005.9 1005.8 6.4
26/12:00am 23.9 29.0 22.7 93 0.8 CALM 0 0 0 0 1006.6 1006.5 6.4
 
Date/Time
EST
Temp
°C
App
Temp
°C
Dew
Point
Rel
Hum
%
Delta-T
°C
Wind Press
QNH
hPa
Press
MSL
hPa
Rain
since 9 am
mm
Dir
 
Spd
km/h
Gust
km/h
Spd
kts
Gust
kts
25/11:30pm 24.0 29.2 22.8 93 0.8 CALM 0 0 0 0 1006.4 1006.3 6.4
25/11:00pm 23.9 28.9 22.5 92 0.9 CALM 0 0 0 0 1006.6 1006.5 6.4
25/10:30pm 24.1 29.2 22.7 92 0.9 CALM 0 0 0 0 1006.5 1006.4 6.4
25/10:00pm 23.9 28.4 22.3 91 1.1 W 2 6 1 3 1006.1 1006.0 6.4
25/09:30pm 24.1 29.0 22.4 90 1.1 CALM 0 6 0 3 1005.6 1005.5 6.4
25/09:00pm 24.2 27.1 22.5 90 1.1 SW 11 15 6 8 1005.8 1005.7 6.4
25/08:30pm 24.2 26.9 22.1 88 1.4 SW 11 20 6 11 1005.6 1005.5 6.4
25/08:00pm 24.7 29.9 22.9 90 1.2 CALM 0 6 0 3 1005.1 1005.0 6.4
25/07:30pm 24.9 28.8 23.0 89 1.3 SE 7 9 4 5 1005.1 1005.0 6.4
25/07:00pm 24.9 29.5 22.4 86 1.7 W 2 6 1 3 1004.0 1003.9 6.4
25/06:30pm 25.4 28.4 22.7 85 1.8 N 11 17 6 9 1003.7 1003.6 6.4
25/06:00pm 24.2 24.1 21.5 85 1.8 NNW 24 32 13 17 1003.9 1003.8 6.4
25/05:43pm 23.5 25.1 20.8 85 1.8 N 13 17 7 9 1003.8 1003.7 6.2
25/05:30pm 23.6 25.3 20.9 85 1.8 NW 13 19 7 10 1004.1 1004.0 6.0
25/05:29pm 23.7 25.2 20.6 83 2.0 NW 13 20 7 11 1004.1 1004.0 6.0
25/05:16pm 24.6 23.4 19.2 72 3.5 WSW 24 48 13 26 1003.8 1003.7 1.6
25/05:10pm 26.9 26.2 18.2 59 5.5 WSW 19 48 10 26 1003.7 1003.6 0.0
25/05:00pm 28.9 33.6 26.1 85 2.0 NNW 13 17 7 9 1004.4 1004.3 0.0
25/04:57pm 29.0 33.8 26.2 85 2.0 N 13 19 7 10 1003.8 1003.7 0.0
25/04:30pm 29.4 33.1 25.8 81 2.6 NNE 17 24 9 13 1004.1 1004.0 0.0
25/04:00pm 30.6 34.4 26.5 79 2.9 NNE 19 24 10 13 1002.7 1002.6 0.0
25/03:30pm 31.3 34.7 25.9 73 3.8 NNE 19 24 10 13 1002.7 1002.6 0.0
25/03:00pm 31.4 34.5 25.7 71 4.1 N 20 26 11 14 1003.2 1003.1 0.0
25/02:30pm 31.2 34.6 25.8 73 3.8 NNE 19 28 10 15 1003.5 1003.4 0.0
25/02:00pm 31.5 35.1 26.1 73 3.9 NNE 19 26 10 14 1003.8 1003.7 0.0
25/01:30pm 31.6 35.7 26.4 74 3.7 NNE 17 24 9 13 1004.0 1003.9 0.0
25/01:00pm 31.5 35.1 26.1 73 3.9 N 19 26 10 14 1004.2 1004.1 0.0
25/12:30pm 31.5 35.1 26.5 75 3.6 N 20 28 11 15 1004.7 1004.6 0.0
25/12:00pm 31.2 34.6 25.8 73 3.8 N 19 24 10 13 1005.2 1005.1 0.0
25/11:30am 31.1 34.5 25.9 74 3.7 N 19 26 10 14 1005.8 1005.7 0.0
25/11:00am 30.7 34.0 25.1 72 4.0 N 17 26 9 14 1006.2 1006.1 0.0
25/10:30am 31.0 34.6 25.6 73 3.8 N 17 24 9 13 1006.5 1006.4 0.0
25/10:00am 30.5 35.0 25.8 76 3.3 NNW 13 20 7 11 1006.7 1006.6 0.0
25/09:31am 29.5 33.1 25.0 77 3.2 N 15 20 8 11 1007.0 1006.9 0.0
25/09:30am 29.8 33.7 25.5 78 3.0 N 15 20 8 11 1007.0 1006.9 0.0
25/09:11am 29.1 33.1 25.1 79 2.8 N 13 26 7 14 1007.1 1007.0 0.0
25/09:00am 29.2 32.6 24.7 77 3.2 N 15 20 8 11 1007.2 1007.1 0.0
25/08:30am 29.0 32.7 24.6 77 3.1 N 13 20 7 11 1007.3 1007.2 0.0
25/08:29am 29.2 33.0 24.7 77 3.1 NNE 13 20 7 11 1007.3 1007.2 0.0
25/08:00am 28.1 32.4 24.3 80 2.6 N 9 15 5 8 1007.5 1007.4 0.0
25/07:41am 28.0 32.6 24.2 80 2.6 NNE 7 13 4 7 1007.4 1007.3 0.0
25/07:30am 27.8 32.3 24.0 80 2.6 NE 7 11 4 6 1007.4 1007.3 0.0
25/07:00am 27.2 31.3 23.9 82 2.3 NE 9 13 5 7 1007.2 1007.1 0.0
25/06:30am 25.5 31.4 24.1 92 1.0 CALM 0 0 0 0 1007.3 1007.2 0.0
25/06:01am 24.7 30.3 23.5 93 0.8 CALM 0 0 0 0 1007.1 1007.0 0.0
25/06:00am 24.6 30.1 23.4 93 0.8 CALM 0 0 0 0 1007.1 1007.0 0.0
25/05:30am 24.4 29.0 23.2 93 0.8 S 4 11 2 6 1006.9 1006.8 0.0
25/05:14am 24.6 30.2 23.6 94 0.7 CALM 0 0 0 0 1006.8 1006.7 0.0
25/05:00am 24.3 29.7 23.3 94 0.7 CALM 0 0 0 0 1006.5 1006.4 0.0
25/04:30am 24.0 29.3 23.0 94 0.7 CALM 0 0 0 0 1006.1 1006.0 0.0
25/04:00am 24.2 29.5 23.0 93 0.8 CALM 0 0 0 0 1005.9 1005.8 0.0
25/03:30am 24.0 29.2 22.8 93 0.8 CALM 0 0 0 0 1005.9 1005.8 0.0
25/03:00am 24.0 29.1 22.6 92 0.9 CALM 0 0 0 0 1005.8 1005.7 0.0
25/02:30am 24.2 29.5 23.0 93 0.8 CALM 0 0 0 0 1006.0 1005.9 0.0
25/02:00am 24.4 29.7 23.0 92 0.9 CALM 0 0 0 0 1006.5 1006.4 0.0
25/01:30am 24.8 29.4 23.2 91 1.1 N 4 7 2 4 1006.3 1006.2 0.0
25/01:00am 24.7 29.8 23.3 92 1.0 ESE 2 6 1 3 1006.7 1006.6 0.0
25/12:30am 24.5 29.8 23.1 92 0.9 CALM 0 0 0 0 1006.9 1006.8 0.0
25/12:00am 24.4 29.5 22.7 90 1.1 CALM 0 0 0 0 1007.0 1006.9 0.0
 
Date/Time
EST
Temp
°C
App
Temp
°C
Dew
Point
Rel
Hum
%
Delta-T
°C
Wind Press
QNH
hPa
Press
MSL
hPa
Rain
since 9 am
mm
Dir
 
Spd
km/h
Gust
km/h
Spd
kts
Gust
kts
24/11:30pm 24.8 30.0 22.9 89 1.3 CALM 0 0 0 0 1007.2 1007.1 0.0
24/11:00pm 25.4 30.3 23.1 87 1.6 N 2 6 1 3 1007.6 1007.5 0.0
24/10:30pm 25.3 30.6 23.0 87 1.6 CALM 0 7 0 4 1007.3 1007.2 0.0
24/10:00pm 25.7 30.5 22.8 84 2.0 NNE 2 6 1 3 1007.5 1007.4 0.0
24/09:30pm 25.7 29.5 22.4 82 2.2 NNE 6 7 3 4 1007.2 1007.1 0.0
24/09:00pm 25.8 29.3 22.1 80 2.5 ENE 7 9 4 5 1007.1 1007.0 0.0
24/08:30pm 25.5 29.3 22.4 83 2.1 NE 6 9 3 5 1006.8 1006.7 0.0
24/08:00pm 25.6 29.1 22.1 81 2.3 ENE 7 9 4 5 1006.5 1006.4 0.0
24/07:30pm 25.9 29.0 22.2 80 2.5 E 9 13 5 7 1006.1 1006.0 0.0
24/07:00pm 26.0 28.2 21.2 75 3.2 ESE 11 17 6 9 1005.6 1005.5 0.0
24/06:30pm 26.6 28.5 21.4 73 3.5 ESE 13 19 7 10 1005.5 1005.4 0.0
24/06:00pm 27.7 29.4 21.7 70 4.0 ESE 15 19 8 10 1005.5 1005.4 0.0
24/05:30pm 27.4 28.5 20.5 66 4.5 SE 15 20 8 11 1005.1 1005.0 0.0
24/05:00pm 28.6 29.4 21.4 65 4.8 SE 19 28 10 15 1004.5 1004.4 0.0
24/04:30pm 28.9 29.3 21.7 65 4.8 SE 22 32 12 17 1004.6 1004.5 0.0
24/04:00pm 29.3 30.8 22.0 64 4.9 SE 17 24 9 13 1004.3 1004.2 0.0
24/03:30pm 30.1 31.9 23.3 67 4.7 SE 19 30 10 16 1004.1 1004.0 0.0
24/03:00pm 29.6 30.9 22.6 66 4.8 ESE 20 30 11 16 1004.3 1004.2 0.0
24/02:30pm 31.1 33.0 22.7 61 5.7 S 17 26 9 14 1004.3 1004.2 0.0
24/02:00pm 30.9 33.2 22.8 62 5.6 SSE 15 22 8 12 1004.4 1004.3 0.0
24/01:30pm 31.3 32.4 21.2 55 6.8 SSW 17 26 9 14 1004.5 1004.4 0.0
24/01:00pm 30.9 31.9 21.1 56 6.6 SSW 17 28 9 15 1004.8 1004.7 0.0
24/12:30pm 30.2 31.6 21.0 58 6.1 SSW 15 24 8 13 1005.0 1004.9 0.0
24/12:00pm 29.6 31.5 21.3 61 5.6 SW 13 22 7 12 1005.4 1005.3 0.0
24/11:30am 28.9 29.7 20.6 61 5.5 SSW 17 24 9 13 1005.6 1005.5 0.0
24/11:00am 28.4 30.0 21.4 66 4.7 SW 15 22 8 12 1005.8 1005.7 0.0
24/10:30am 27.8 29.1 20.9 66 4.6 SW 15 20 8 11 1005.9 1005.8 0.0
24/10:00am 27.8 29.5 21.6 69 4.2 SW 15 20 8 11 1005.7 1005.6 0.0
24/09:30am 26.9 28.4 21.2 71 3.8 WSW 15 24 8 13 1005.9 1005.8 0.0
24/09:00am 26.5 27.7 21.5 74 3.3 SSW 17 20 9 11 1005.7 1005.6 14.8
24/08:30am 26.2 27.4 20.7 71 3.6 SW 15 20 8 11 1005.6 1005.5 14.8
24/08:00am 25.2 26.4 20.7 76 3.0 SW 15 24 8 13 1005.7 1005.6 14.8
24/07:30am 24.7 26.5 20.4 77 2.8 SW 11 17 6 9 1005.7 1005.6 14.8
24/07:00am 23.8 25.3 20.5 82 2.2 WSW 13 17 7 9 1005.5 1005.4 14.8
24/06:30am 22.2 24.7 20.3 89 1.2 WSW 7 13 4 7 1005.4 1005.3 14.8
24/06:00am 21.6 24.2 20.4 93 0.8 SW 7 9 4 5 1005.4 1005.3 14.8
24/05:30am 21.2 23.8 20.0 93 0.8 WSW 6 7 3 4 1005.0 1004.9 14.8
24/05:00am 21.2 23.5 19.8 92 0.9 W 7 7 4 4 1004.4 1004.3 14.8
24/04:43am 21.6 24.2 20.1 91 1.0 W 6 7 3 4 1004.2 1004.1 14.8
24/04:30am 21.8 23.9 20.1 90 1.1 SW 9 13 5 7 1004.0 1003.9 14.8
24/04:00am 22.1 23.9 20.4 90 1.1 SW 11 15 6 8 1003.7 1003.6 14.8
24/03:30am 22.1 24.0 20.6 91 1.0 SSW 11 15 6 8 1003.5 1003.4 14.8
24/03:00am 22.0 24.2 20.5 91 1.0 SW 9 13 5 7 1003.6 1003.5 14.8
24/02:38am 22.1 24.8 20.7 92 0.9 SW 7 11 4 6 1003.6 1003.5 14.8
24/02:30am 22.0 23.9 20.6 92 0.9 SW 11 15 6 8 1003.5 1003.4 14.8
24/02:00am 22.0 23.5 20.6 92 0.9 SW 13 17 7 9 1003.3 1003.2 14.8
24/01:30am 22.4 24.6 21.2 93 0.8 SW 11 15 6 8 1003.5 1003.4 14.8
24/01:10am 22.5 24.4 21.3 93 0.8 SSW 13 20 7 11 1003.7 1003.6 14.8
24/01:00am 22.5 24.0 21.3 93 0.8 SSW 15 20 8 11 1003.8 1003.7 14.8
24/12:30am 23.3 24.7 21.9 92 0.9 SSW 17 24 9 13 1004.3 1004.2 14.8
24/12:00am 23.3 26.1 22.3 94 0.7 SSW 11 13 6 7 1004.6 1004.5 14.8
 
Date/Time
EST
Temp
°C
App
Temp
°C
Dew
Point
Rel
Hum
%
Delta-T
°C
Wind Press
QNH
hPa
Press
MSL
hPa
Rain
since 9 am
mm
Dir
 
Spd
km/h
Gust
km/h
Spd
kts
Gust
kts
23/11:48pm 23.1 25.3 21.9 93 0.8 S 13 19 7 10 1004.6 1004.5 14.8
23/11:34pm 23.8 26.9 22.8 94 0.7 SSW 11 17 6 9 1004.6 1004.5 14.8
23/11:30pm 23.7 26.7 22.7 94 0.7 SSW 11 17 6 9 1004.6 1004.5 14.8
23/11:00pm 23.7 27.1 22.7 94 0.7 S 9 13 5 7 1004.6 1004.5 14.8
23/10:30pm 23.7 26.6 22.5 93 0.8 S 11 15 6 8 1004.6 1004.5 14.8
23/10:00pm 24.1 28.3 23.1 94 0.7 SW 6 9 3 5 1004.6 1004.5 14.8
23/09:54pm 24.1 28.1 23.1 94 0.7 SW 7 9 4 5 1004.7 1004.6 14.8
23/09:30pm 24.2 28.3 23.2 94 0.7 SSW 7 9 4 5 1004.7 1004.6 14.8
23/09:00pm 24.3 28.3 23.1 93 0.8 SSW 7 11 4 6 1004.5 1004.4 14.8
23/08:30pm 24.6 28.7 23.2 92 0.9 SSW 7 9 4 5 1004.2 1004.1 14.8
23/08:06pm 24.9 28.8 23.0 89 1.3 SSW 7 9 4 5 1004.0 1003.9 14.8

Other Formats:

Comma delimited format used in spreadsheet applications
http://www.bom.gov.au/fwo/IDQ60801/IDQ60801.95565.axf

JavaScript Object Notation format (JSON) in row-major order
http://www.bom.gov.au/fwo/IDQ60801/IDQ60801.95565.json